sensor_id;sensor_type;location;lat;lon;timestamp;pressure;altitude;pressure_sealevel;temperature;humidity
57990;BME280;58373;51.824;5.564;2023-02-12T00:01:28;103765.25;;;6.17;100.00
57990;BME280;58373;51.824;5.564;2023-02-12T00:03:53;103760.09;;;6.17;100.00
57990;BME280;58373;51.824;5.564;2023-02-12T00:06:19;103749.97;;;6.08;100.00
57990;BME280;58373;51.824;5.564;2023-02-12T00:08:48;103763.44;;;6.25;100.00
57990;BME280;58373;51.824;5.564;2023-02-12T00:11:16;103756.69;;;6.17;100.00
57990;BME280;58373;51.824;5.564;2023-02-12T00:13:41;103754.31;;;6.04;100.00
57990;BME280;58373;51.824;5.564;2023-02-12T00:16:08;103755.00;;;6.14;100.00
57990;BME280;58373;51.824;5.564;2023-02-12T00:18:34;103758.59;;;6.04;100.00
57990;BME280;58373;51.824;5.564;2023-02-12T00:21:00;103768.75;;;6.13;100.00
57990;BME280;58373;51.824;5.564;2023-02-12T00:23:26;103767.13;;;6.09;100.00
57990;BME280;58373;51.824;5.564;2023-02-12T00:25:51;103755.19;;;6.02;100.00
57990;BME280;58373;51.824;5.564;2023-02-12T00:28:16;103758.53;;;6.07;100.00
57990;BME280;58373;51.824;5.564;2023-02-12T00:30:42;103757.72;;;6.05;100.00
57990;BME280;58373;51.824;5.564;2023-02-12T00:33:07;103736.44;;;5.91;100.00
57990;BME280;58373;51.824;5.564;2023-02-12T00:35:33;103770.59;;;6.05;100.00
57990;BME280;58373;51.824;5.564;2023-02-12T00:37:58;103765.44;;;6.05;100.00
57990;BME280;58373;51.824;5.564;2023-02-12T00:40:23;103769.78;;;6.01;100.00
57990;BME280;58373;51.824;5.564;2023-02-12T00:42:49;103771.50;;;6.01;100.00
57990;BME280;58373;51.824;5.564;2023-02-12T00:45:14;103765.56;;;5.99;100.00
57990;BME280;58373;51.824;5.564;2023-02-12T00:47:39;103770.63;;;6.02;100.00
57990;BME280;58373;51.824;5.564;2023-02-12T00:50:05;103773.16;;;6.06;100.00
57990;BME280;58373;51.824;5.564;2023-02-12T00:52:31;103751.97;;;5.84;100.00
57990;BME280;58373;51.824;5.564;2023-02-12T00:54:56;103776.72;;;5.98;100.00
57990;BME280;58373;51.824;5.564;2023-02-12T00:57:21;103768.94;;;6.01;100.00
57990;BME280;58373;51.824;5.564;2023-02-12T00:59:47;103763.09;;;5.88;100.00
57990;BME280;58373;51.824;5.564;2023-02-12T01:02:12;103750.28;;;5.83;100.00
57990;BME280;58373;51.824;5.564;2023-02-12T01:04:37;103773.31;;;5.96;100.00
57990;BME280;58373;51.824;5.564;2023-02-12T01:07:03;103763.09;;;5.88;100.00
57990;BME280;58373;51.824;5.564;2023-02-12T01:09:28;103776.81;;;5.92;100.00
57990;BME280;58373;51.824;5.564;2023-02-12T01:11:53;103768.22;;;5.90;100.00
57990;BME280;58373;51.824;5.564;2023-02-12T01:14:19;103758.75;;;5.90;100.00
57990;BME280;58373;51.824;5.564;2023-02-12T01:16:44;103754.47;;;5.91;100.00
57990;BME280;58373;51.824;5.564;2023-02-12T01:19:11;103760.50;;;5.93;100.00
57990;BME280;58373;51.824;5.564;2023-02-12T01:21:37;103748.59;;;5.82;100.00
57990;BME280;58373;51.824;5.564;2023-02-12T01:24:03;103774.16;;;5.98;100.00
57990;BME280;58373;51.824;5.564;2023-02-12T01:26:29;103769.00;;;5.98;100.00
57990;BME280;58373;51.824;5.564;2023-02-12T01:28:57;103747.66;;;5.88;100.00
57990;BME280;58373;51.824;5.564;2023-02-12T01:31:27;103763.91;;;5.90;100.00
57990;BME280;58373;51.824;5.564;2023-02-12T01:33:55;103754.50;;;5.92;100.00
57990;BME280;58373;51.824;5.564;2023-02-12T01:36:21;103767.34;;;5.91;100.00
57990;BME280;58373;51.824;5.564;2023-02-12T01:38:47;103764.84;;;5.86;100.00
57990;BME280;58373;51.824;5.564;2023-02-12T01:41:19;103763.94;;;5.89;100.00
57990;BME280;58373;51.824;5.564;2023-02-12T01:43:45;103745.38;;;5.68;100.00
57990;BME280;58373;51.824;5.564;2023-02-12T01:46:13;103751.97;;;5.84;100.00
57990;BME280;58373;51.824;5.564;2023-02-12T01:48:42;103762.19;;;5.91;100.00
57990;BME280;58373;51.824;5.564;2023-02-12T01:51:11;103745.22;;;5.77;100.00
57990;BME280;58373;51.824;5.564;2023-02-12T01:53:42;103759.72;;;5.83;100.00
57990;BME280;58373;51.824;5.564;2023-02-12T01:56:10;103754.56;;;5.84;100.00
57990;BME280;58373;51.824;5.564;2023-02-12T01:58:38;103772.50;;;5.91;100.00
57990;BME280;58373;51.824;5.564;2023-02-12T02:01:07;103768.28;;;5.86;100.00
57990;BME280;58373;51.824;5.564;2023-02-12T02:03:35;103758.91;;;5.81;100.00
57990;BME280;58373;51.824;5.564;2023-02-12T02:06:06;103759.75;;;5.81;100.00
57990;BME280;58373;51.824;5.564;2023-02-12T02:08:33;103770.00;;;5.84;100.00
57990;BME280;58373;51.824;5.564;2023-02-12T02:11:00;103743.53;;;5.76;100.00
57990;BME280;58373;51.824;5.564;2023-02-12T02:13:25;103758.84;;;5.85;100.00
57990;BME280;58373;51.824;5.564;2023-02-12T02:16:19;103756.31;;;5.82;100.00
57990;BME280;58373;51.824;5.564;2023-02-12T02:22:04;103738.28;;;5.82;100.00
57990;BME280;58373;51.824;5.564;2023-02-12T02:24:46;103762.19;;;5.91;100.00
57990;BME280;58373;51.824;5.564;2023-02-12T02:35:39;103734.03;;;5.80;100.00
57990;BME280;58373;51.824;5.564;2023-02-12T02:38:19;103739.94;;;5.86;100.00
57990;BME280;58373;51.824;5.564;2023-02-12T02:41:21;103749.38;;;5.88;100.00
57990;BME280;58373;51.824;5.564;2023-02-12T02:43:50;103745.22;;;5.77;100.00
57990;BME280;58373;51.824;5.564;2023-02-12T02:48:53;103744.34;;;5.78;100.00
57990;BME280;58373;51.824;5.564;2023-02-12T02:51:28;103744.28;;;5.83;100.00
57990;BME280;58373;51.824;5.564;2023-02-12T02:54:08;103725.53;;;5.73;100.00
57990;BME280;58373;51.824;5.564;2023-02-12T02:56:37;103734.88;;;5.80;100.00
57990;BME280;58373;51.824;5.564;2023-02-12T02:59:12;103743.53;;;5.76;100.00
57990;BME280;58373;51.824;5.564;2023-02-12T03:01:43;103731.53;;;5.75;100.00
57990;BME280;58373;51.824;5.564;2023-02-12T03:04:18;103735.81;;;5.76;100.00
57990;BME280;58373;51.824;5.564;2023-02-12T03:06:58;103723.00;;;5.70;100.00
57990;BME280;58373;51.824;5.564;2023-02-12T03:09:31;103724.72;;;5.71;100.00
57990;BME280;58373;51.824;5.564;2023-02-12T03:12:03;103726.50;;;5.66;100.00
57990;BME280;58373;51.824;5.564;2023-02-12T03:14:35;103729.00;;;5.71;100.00
57990;BME280;58373;51.824;5.564;2023-02-12T03:17:06;103690.72;;;5.48;100.00
57990;BME280;58373;51.824;5.564;2023-02-12T03:19:37;103743.53;;;5.76;100.00
57990;BME280;58373;51.824;5.564;2023-02-12T03:22:09;103730.72;;;5.72;100.00
57990;BME280;58373;51.824;5.564;2023-02-12T03:24:39;103731.66;;;5.66;100.00
57990;BME280;58373;51.824;5.564;2023-02-12T03:28:30;103736.59;;;5.81;100.00
57990;BME280;58373;51.824;5.564;2023-02-12T03:30:38;103725.63;;;5.69;100.00
57990;BME280;58373;51.824;5.564;2023-02-12T03:33:26;103731.47;;;5.78;100.00
57990;BME280;58373;51.824;5.564;2023-02-12T03:39:04;103724.63;;;5.77;99.82
57990;BME280;58373;51.824;5.564;2023-02-12T03:41:46;103734.03;;;5.80;100.00
57990;BME280;58373;51.824;5.564;2023-02-12T03:47:04;103738.38;;;5.76;100.00
57990;BME280;58373;51.824;5.564;2023-02-12T03:49:51;103736.63;;;5.80;100.00
57990;BME280;58373;51.824;5.564;2023-02-12T03:52:17;103731.63;;;5.69;99.97
57990;BME280;58373;51.824;5.564;2023-02-12T03:54:43;103742.66;;;5.77;100.00
57990;BME280;58373;51.824;5.564;2023-02-12T03:57:13;103741.84;;;5.72;100.00
57990;BME280;58373;51.824;5.564;2023-02-12T03:59:40;103729.91;;;5.68;100.00
57990;BME280;58373;51.824;5.564;2023-02-12T04:02:06;103734.16;;;5.71;100.00
57990;BME280;58373;51.824;5.564;2023-02-12T04:04:32;103735.00;;;5.71;100.00
57990;BME280;58373;51.824;5.564;2023-02-12T04:06:59;103735.81;;;5.75;100.00
57990;BME280;58373;51.824;5.564;2023-02-12T04:09:25;103742.81;;;5.65;100.00
57990;BME280;58373;51.824;5.564;2023-02-12T04:12:06;103743.56;;;5.73;100.00
57990;BME280;58373;51.824;5.564;2023-02-12T04:24:59;103762.44;;;5.75;99.59
57990;BME280;58373;51.824;5.564;2023-02-12T04:27:39;103752.97;;;5.76;99.45
57990;BME280;58373;51.824;5.564;2023-02-12T04:30:37;103763.22;;;5.79;99.75
57990;BME280;58373;51.824;5.564;2023-02-12T04:33:05;103753.69;;;5.85;99.53
57990;BME280;58373;51.824;5.564;2023-02-12T04:35:36;103762.34;;;5.81;99.69
57990;BME280;58373;51.824;5.564;2023-02-12T04:38:10;103770.94;;;5.80;99.24
57990;BME280;58373;51.824;5.564;2023-02-12T04:40:39;103772.69;;;5.80;99.42
57990;BME280;58373;51.824;5.564;2023-02-12T04:43:06;103758.97;;;5.76;99.18
57990;BME280;58373;51.824;5.564;2023-02-12T04:45:33;103752.25;;;5.66;99.00
57990;BME280;58373;51.824;5.564;2023-02-12T04:47:59;103766.78;;;5.70;98.99
57990;BME280;58373;51.824;5.564;2023-02-12T04:50:25;103757.38;;;5.69;99.13
57990;BME280;58373;51.824;5.564;2023-02-12T04:52:53;103772.75;;;5.72;99.15
57990;BME280;58373;51.824;5.564;2023-02-12T04:55:18;103764.25;;;5.69;99.01
57990;BME280;58373;51.824;5.564;2023-02-12T04:57:43;103759.16;;;5.64;99.36
57990;BME280;58373;51.824;5.564;2023-02-12T05:00:11;103780.50;;;5.74;99.22
57990;BME280;58373;51.824;5.564;2023-02-12T05:02:37;103769.31;;;5.73;99.09
57990;BME280;58373;51.824;5.564;2023-02-12T05:05:03;103781.25;;;5.80;98.80
57990;BME280;58373;51.824;5.564;2023-02-12T05:07:29;103769.38;;;5.70;99.13
57990;BME280;58373;51.824;5.564;2023-02-12T05:09:54;103767.59;;;5.72;99.36
57990;BME280;58373;51.824;5.564;2023-02-12T05:12:19;103771.06;;;5.71;98.84
57990;BME280;58373;51.824;5.564;2023-02-12T05:14:45;103772.81;;;5.69;98.94
57990;BME280;58373;51.824;5.564;2023-02-12T05:17:10;103764.31;;;5.64;98.69
57990;BME280;58373;51.824;5.564;2023-02-12T05:19:35;103762.59;;;5.63;97.88
57990;BME280;58373;51.824;5.564;2023-02-12T05:22:01;103783.00;;;5.77;98.51
57990;BME280;58373;51.824;5.564;2023-02-12T05:24:26;103773.69;;;5.68;97.93
57990;BME280;58373;51.824;5.564;2023-02-12T05:26:52;103770.25;;;5.68;97.54
57990;BME280;58373;51.824;5.564;2023-02-12T05:29:17;103778.75;;;5.74;97.92
57990;BME280;58373;51.824;5.564;2023-02-12T05:31:43;103784.72;;;5.76;98.54
57990;BME280;58373;51.824;5.564;2023-02-12T05:34:10;103783.94;;;5.71;98.17
57990;BME280;58373;51.824;5.564;2023-02-12T05:36:35;103789.97;;;5.70;98.48
57990;BME280;58373;51.824;5.564;2023-02-12T05:39:01;103788.28;;;5.66;98.03
57990;BME280;58373;51.824;5.564;2023-02-12T05:41:26;103786.50;;;5.71;98.28
57990;BME280;58373;51.824;5.564;2023-02-12T05:43:52;103784.84;;;5.67;98.54
57990;BME280;58373;51.824;5.564;2023-02-12T05:46:19;103796.78;;;5.74;98.86
57990;BME280;58373;51.824;5.564;2023-02-12T05:48:45;103784.78;;;5.72;99.05
57990;BME280;58373;51.824;5.564;2023-02-12T05:51:24;103785.63;;;5.72;99.24
57990;BME280;58373;51.824;5.564;2023-02-12T05:53:52;103792.47;;;5.76;98.25
57990;BME280;58373;51.824;5.564;2023-02-12T05:56:29;103772.84;;;5.66;98.90
57990;BME280;58373;51.824;5.564;2023-02-12T05:58:57;103777.97;;;5.69;98.39
57990;BME280;58373;51.824;5.564;2023-02-12T06:01:28;103776.22;;;5.71;98.84
57990;BME280;58373;51.824;5.564;2023-02-12T06:03:54;103780.44;;;5.77;98.12
57990;BME280;58373;51.824;5.564;2023-02-12T06:06:20;103760.06;;;5.60;98.41
57990;BME280;58373;51.824;5.564;2023-02-12T06:08:47;103779.69;;;5.67;98.78
57990;BME280;58373;51.824;5.564;2023-02-12T06:11:13;103780.53;;;5.68;98.83
57990;BME280;58373;51.824;5.564;2023-02-12T06:13:39;103792.50;;;5.72;98.89
57990;BME280;58373;51.824;5.564;2023-02-12T06:16:05;103798.56;;;5.69;98.68
57990;BME280;58373;51.824;5.564;2023-02-12T06:18:30;103791.75;;;5.65;98.66
57990;BME280;58373;51.824;5.564;2023-02-12T06:20:56;103798.56;;;5.69;99.02
57990;BME280;58373;51.824;5.564;2023-02-12T06:23:22;103789.16;;;5.68;98.56
57990;BME280;58373;51.824;5.564;2023-02-12T06:25:48;103787.47;;;5.64;98.45
57990;BME280;58373;51.824;5.564;2023-02-12T06:28:14;103791.72;;;5.68;98.45
57990;BME280;58373;51.824;5.564;2023-02-12T06:30:39;103807.09;;;5.73;98.49
57990;BME280;58373;51.824;5.564;2023-02-12T06:33:04;103793.44;;;5.66;99.09
57990;BME280;58373;51.824;5.564;2023-02-12T06:35:30;103802.88;;;5.69;99.09
57990;BME280;58373;51.824;5.564;2023-02-12T06:37:55;103784.03;;;5.65;98.76
57990;BME280;58373;51.824;5.564;2023-02-12T06:40:21;103796.88;;;5.67;98.82
57990;BME280;58373;51.824;5.564;2023-02-12T06:42:46;103803.66;;;5.72;98.42
57990;BME280;58373;51.824;5.564;2023-02-12T06:45:11;103802.88;;;5.67;98.90
57990;BME280;58373;51.824;5.564;2023-02-12T06:47:37;103796.81;;;5.71;99.01
57990;BME280;58373;51.824;5.564;2023-02-12T06:50:02;103802.88;;;5.67;98.52
57990;BME280;58373;51.824;5.564;2023-02-12T06:52:28;103807.16;;;5.68;98.50
57990;BME280;58373;51.824;5.564;2023-02-12T06:54:54;103798.63;;;5.65;98.49
57990;BME280;58373;51.824;5.564;2023-02-12T06:57:19;103820.00;;;5.71;98.77
57990;BME280;58373;51.824;5.564;2023-02-12T06:59:45;103807.16;;;5.68;98.62
57990;BME280;58373;51.824;5.564;2023-02-12T07:02:10;103812.34;;;5.65;98.68
57990;BME280;58373;51.824;5.564;2023-02-12T07:04:39;103794.28;;;5.67;98.62
57990;BME280;58373;51.824;5.564;2023-02-12T07:07:04;103819.16;;;5.69;98.75
57990;BME280;58373;51.824;5.564;2023-02-12T07:09:30;103824.34;;;5.66;98.79
57990;BME280;58373;51.824;5.564;2023-02-12T07:11:57;103819.16;;;5.68;98.61
57990;BME280;58373;51.824;5.564;2023-02-12T07:14:22;103829.50;;;5.66;98.81
57990;BME280;58373;51.824;5.564;2023-02-12T07:16:47;103837.13;;;5.72;98.45
57990;BME280;58373;51.824;5.564;2023-02-12T07:19:13;103815.88;;;5.58;98.67
57990;BME280;58373;51.824;5.564;2023-02-12T07:21:38;103817.56;;;5.62;99.06
57990;BME280;58373;51.824;5.564;2023-02-12T07:24:04;103820.94;;;5.64;99.09
57990;BME280;58373;51.824;5.564;2023-02-12T07:26:29;103833.75;;;5.67;98.68
57990;BME280;58373;51.824;5.564;2023-02-12T07:28:55;103834.53;;;5.75;99.10
57990;BME280;58373;51.824;5.564;2023-02-12T07:31:22;103841.41;;;5.73;98.93
57990;BME280;58373;51.824;5.564;2023-02-12T07:33:47;103825.13;;;5.71;98.40
57990;BME280;58373;51.824;5.564;2023-02-12T07:36:16;103826.03;;;5.70;98.46
57990;BME280;58373;51.824;5.564;2023-02-12T07:38:42;103843.88;;;5.82;98.41
57990;BME280;58373;51.824;5.564;2023-02-12T07:41:13;103844.00;;;5.73;98.41
57990;BME280;58373;51.824;5.564;2023-02-12T07:43:43;103843.25;;;5.65;98.22
57990;BME280;58373;51.824;5.564;2023-02-12T07:46:30;103836.25;;;5.76;98.30
57990;BME280;58373;51.824;5.564;2023-02-12T07:48:58;103838.06;;;5.67;98.33
57990;BME280;58373;51.824;5.564;2023-02-12T07:51:24;103843.22;;;5.68;98.43
57990;BME280;58373;51.824;5.564;2023-02-12T07:53:50;103841.41;;;5.73;98.09
57990;BME280;58373;51.824;5.564;2023-02-12T07:56:24;103852.53;;;5.77;98.65
57990;BME280;58373;51.824;5.564;2023-02-12T07:58:55;103840.56;;;5.74;98.09
57990;BME280;58373;51.824;5.564;2023-02-12T08:01:26;103841.44;;;5.72;98.65
57990;BME280;58373;51.824;5.564;2023-02-12T08:03:52;103848.38;;;5.68;97.98
57990;BME280;58373;51.824;5.564;2023-02-12T08:06:21;103842.31;;;5.71;98.27
57990;BME280;58373;51.824;5.564;2023-02-12T08:08:50;103847.44;;;5.74;97.58
57990;BME280;58373;51.824;5.564;2023-02-12T08:11:15;103842.28;;;5.72;96.78
57990;BME280;58373;51.824;5.564;2023-02-12T08:13:42;103840.56;;;5.73;96.86
57990;BME280;58373;51.824;5.564;2023-02-12T08:16:10;103861.88;;;5.84;96.87
57990;BME280;58373;51.824;5.564;2023-02-12T08:18:35;103851.69;;;5.76;96.98
57990;BME280;58373;51.824;5.564;2023-02-12T08:21:05;103849.16;;;5.75;97.42
57990;BME280;58373;51.824;5.564;2023-02-12T08:23:31;103862.81;;;5.78;97.20
57990;BME280;58373;51.824;5.564;2023-02-12T08:28:38;103877.34;;;5.84;97.24
57990;BME280;58373;51.824;5.564;2023-02-12T08:31:07;103877.34;;;5.85;98.04
57990;BME280;58373;51.824;5.564;2023-02-12T08:33:33;103880.69;;;5.91;97.82
57990;BME280;58373;51.824;5.564;2023-02-12T08:36:06;103871.38;;;5.79;97.38
57990;BME280;58373;51.824;5.564;2023-02-12T08:38:33;103880.75;;;5.88;97.59
57990;BME280;58373;51.824;5.564;2023-02-12T08:41:04;103889.28;;;5.90;97.83
57990;BME280;58373;51.824;5.564;2023-02-12T08:43:30;103879.13;;;5.80;97.49
57990;BME280;58373;51.824;5.564;2023-02-12T08:46:19;103887.59;;;5.89;97.36
57990;BME280;58373;51.824;5.564;2023-02-12T08:48:45;103884.13;;;5.90;97.67
57990;BME280;58373;51.824;5.564;2023-02-12T08:51:17;103899.53;;;5.97;97.83
57990;BME280;58373;51.824;5.564;2023-02-12T08:53:44;103899.53;;;5.96;97.34
57990;BME280;58373;51.824;5.564;2023-02-12T08:56:12;103883.28;;;5.89;97.65
57990;BME280;58373;51.824;5.564;2023-02-12T08:58:38;103910.66;;;6.02;97.73
57990;BME280;58373;51.824;5.564;2023-02-12T09:01:08;103889.22;;;5.99;97.72
57990;BME280;58373;51.824;5.564;2023-02-12T09:03:34;103899.53;;;5.99;98.33
57990;BME280;58373;51.824;5.564;2023-02-12T09:06:04;103914.06;;;6.03;98.60
57990;BME280;58373;51.824;5.564;2023-02-12T09:08:30;103893.53;;;5.95;97.78
57990;BME280;58373;51.824;5.564;2023-02-12T09:10:55;103885.00;;;5.89;98.08
57990;BME280;58373;51.824;5.564;2023-02-12T09:13:20;103891.84;;;5.94;98.20
57990;BME280;58373;51.824;5.564;2023-02-12T09:15:46;103892.59;;;6.01;98.33
57990;BME280;58373;51.824;5.564;2023-02-12T09:18:12;103890.91;;;6.00;98.09
57990;BME280;58373;51.824;5.564;2023-02-12T09:20:40;103898.59;;;6.04;97.99
57990;BME280;58373;51.824;5.564;2023-02-12T09:23:06;103902.00;;;6.08;97.65
57990;BME280;58373;51.824;5.564;2023-02-12T09:25:32;103907.16;;;6.05;98.02
57990;BME280;58373;51.824;5.564;2023-02-12T09:28:01;103902.84;;;6.07;97.80
57990;BME280;58373;51.824;5.564;2023-02-12T09:30:26;103915.59;;;6.16;97.46
57990;BME280;58373;51.824;5.564;2023-02-12T09:32:52;103906.19;;;6.12;97.92
57990;BME280;58373;51.824;5.564;2023-02-12T09:35:17;103906.19;;;6.12;97.86
57990;BME280;58373;51.824;5.564;2023-02-12T09:37:43;103909.53;;;6.20;97.07
57990;BME280;58373;51.824;5.564;2023-02-12T09:40:17;103908.72;;;6.17;97.25
57990;BME280;58373;51.824;5.564;2023-02-12T09:45:54;103900.94;;;6.21;97.35
57990;BME280;58373;51.824;5.564;2023-02-12T09:48:31;103913.75;;;6.26;97.56
57990;BME280;58373;51.824;5.564;2023-02-12T09:51:02;103901.72;;;6.25;97.23
57990;BME280;58373;51.824;5.564;2023-02-12T09:53:35;103902.63;;;6.22;96.58
57990;BME280;58373;51.824;5.564;2023-02-12T09:56:02;103909.47;;;6.26;96.42
57990;BME280;58373;51.824;5.564;2023-02-12T09:58:46;103910.25;;;6.30;96.29
57990;BME280;58373;51.824;5.564;2023-02-12T10:01:16;103928.22;;;6.34;96.09
57990;BME280;58373;51.824;5.564;2023-02-12T10:03:43;103929.91;;;6.38;95.81
57990;BME280;58373;51.824;5.564;2023-02-12T10:06:25;103917.91;;;6.37;96.60
57990;BME280;58373;51.824;5.564;2023-02-12T10:11:56;103911.91;;;6.34;96.17
57990;BME280;58373;51.824;5.564;2023-02-12T10:14:37;103917.00;;;6.38;96.24
57990;BME280;58373;51.824;5.564;2023-02-12T10:28:24;103904.97;;;6.39;94.89
57990;BME280;58373;51.824;5.564;2023-02-12T10:30:53;103914.38;;;6.42;94.08
57990;BME280;58373;51.824;5.564;2023-02-12T10:33:41;103916.00;;;6.47;93.98
57990;BME280;58373;51.824;5.564;2023-02-12T10:36:18;103897.13;;;6.47;94.35
57990;BME280;58373;51.824;5.564;2023-02-12T10:38:51;103912.56;;;6.50;94.49
57990;BME280;58373;51.824;5.564;2023-02-12T10:41:19;103917.72;;;6.50;93.34
57990;BME280;58373;51.824;5.564;2023-02-12T10:43:47;103907.47;;;6.45;94.02
57990;BME280;58373;51.824;5.564;2023-02-12T10:46:14;103897.09;;;6.50;94.03
57990;BME280;58373;51.824;5.564;2023-02-12T10:48:43;103900.44;;;6.55;94.02
57990;BME280;58373;51.824;5.564;2023-02-12T10:53:42;103902.06;;;6.59;92.46
57990;BME280;58373;51.824;5.564;2023-02-12T10:58:40;103912.31;;;6.65;92.65
57990;BME280;58373;51.824;5.564;2023-02-12T11:01:14;103900.38;;;6.58;91.87
57990;BME280;58373;51.824;5.564;2023-02-12T11:03:40;103905.50;;;6.61;91.94
57990;BME280;58373;51.824;5.564;2023-02-12T11:06:17;103908.06;;;6.62;92.77
57990;BME280;58373;51.824;5.564;2023-02-12T11:08:44;103897.75;;;6.62;93.71
57990;BME280;58373;51.824;5.564;2023-02-12T11:11:27;103917.31;;;6.74;93.12
57990;BME280;58373;51.824;5.564;2023-02-12T11:14:06;103915.63;;;6.73;92.80
57990;BME280;58373;51.824;5.564;2023-02-12T11:16:49;103915.63;;;6.73;92.89
57990;BME280;58373;51.824;5.564;2023-02-12T11:19:23;103900.97;;;6.75;93.12
57990;BME280;58373;51.824;5.564;2023-02-12T11:21:50;103895.09;;;6.67;91.21
57990;BME280;58373;51.824;5.564;2023-02-12T11:26:50;103912.97;;;6.76;91.49
57990;BME280;58373;51.824;5.564;2023-02-12T11:29:21;103896.75;;;6.71;90.63
57990;BME280;58373;51.824;5.564;2023-02-12T11:32:03;103888.97;;;6.73;92.24
57990;BME280;58373;51.824;5.564;2023-02-12T11:34:32;103889.84;;;6.73;90.95
57990;BME280;58373;51.824;5.564;2023-02-12T11:36:59;103889.88;;;6.70;91.12
57990;BME280;58373;51.824;5.564;2023-02-12T11:42:03;103895.69;;;6.83;90.63
57990;BME280;58373;51.824;5.564;2023-02-12T11:44:35;103882.81;;;6.81;90.55
57990;BME280;58373;51.824;5.564;2023-02-12T11:47:24;103877.66;;;6.81;91.20
57990;BME280;58373;51.824;5.564;2023-02-12T11:52:33;103883.63;;;6.85;91.17
57990;BME280;58373;51.824;5.564;2023-02-12T11:55:04;103887.03;;;6.85;91.62
57990;BME280;58373;51.824;5.564;2023-02-12T12:00:04;103887.00;;;6.87;92.10
57990;BME280;58373;51.824;5.564;2023-02-12T12:02:36;103886.16;;;6.86;91.42
57990;BME280;58373;51.824;5.564;2023-02-12T12:05:13;103896.38;;;6.92;91.98
57990;BME280;58373;51.824;5.564;2023-02-12T12:07:44;103879.28;;;6.88;91.52
57990;BME280;58373;51.824;5.564;2023-02-12T12:12:58;103875.81;;;6.89;91.23
57990;BME280;58373;51.824;5.564;2023-02-12T12:15:37;103858.63;;;6.87;91.41
57990;BME280;58373;51.824;5.564;2023-02-12T12:18:30;103878.31;;;6.92;91.24
57990;BME280;58373;51.824;5.564;2023-02-12T12:21:33;103868.00;;;6.94;91.08
57990;BME280;58373;51.824;5.564;2023-02-12T12:24:30;103865.34;;;6.97;91.16
57990;BME280;58373;51.824;5.564;2023-02-12T12:27:09;103865.41;;;6.92;90.27
57990;BME280;58373;51.824;5.564;2023-02-12T12:29:59;103853.41;;;6.91;91.09
57990;BME280;58373;51.824;5.564;2023-02-12T12:32:33;103852.59;;;6.89;91.18
57990;BME280;58373;51.824;5.564;2023-02-12T12:35:00;103846.47;;;6.93;91.19
57990;BME280;58373;51.824;5.564;2023-02-12T12:38:02;103833.72;;;6.86;90.77
57990;BME280;58373;51.824;5.564;2023-02-12T12:40:41;103850.72;;;6.98;89.68
57990;BME280;58373;51.824;5.564;2023-02-12T12:43:12;103849.81;;;6.99;90.18
57990;BME280;58373;51.824;5.564;2023-02-12T12:51:41;103837.75;;;7.01;90.88
57990;BME280;58373;51.824;5.564;2023-02-12T12:54:33;103833.56;;;6.95;90.31
57990;BME280;58373;51.824;5.564;2023-02-12T12:57:05;103833.38;;;7.04;90.49
57990;BME280;58373;51.824;5.564;2023-02-12T12:59:47;103832.53;;;7.04;90.45
57990;BME280;58373;51.824;5.564;2023-02-12T13:08:12;103806.72;;;7.04;90.89
57990;BME280;58373;51.824;5.564;2023-02-12T13:10:52;103826.44;;;7.08;90.26
57990;BME280;58373;51.824;5.564;2023-02-12T13:13:35;103816.28;;;7.00;90.59
57990;BME280;58373;51.824;5.564;2023-02-12T13:16:20;103831.53;;;7.11;91.27
57990;BME280;58373;51.824;5.564;2023-02-12T13:26:47;103819.38;;;7.16;90.24
57990;BME280;58373;51.824;5.564;2023-02-12T13:29:26;103803.09;;;7.14;89.80
57990;BME280;58373;51.824;5.564;2023-02-12T13:32:27;103820.16;;;7.21;90.08
57990;BME280;58373;51.824;5.564;2023-02-12T13:34:55;103812.56;;;7.13;89.06
57990;BME280;58373;51.824;5.564;2023-02-12T13:37:35;103815.94;;;7.17;88.31
57990;BME280;58373;51.824;5.564;2023-02-12T13:40:09;103807.53;;;7.07;88.55
57990;BME280;58373;51.824;5.564;2023-02-12T13:45:15;103813.41;;;7.14;88.49
57990;BME280;58373;51.824;5.564;2023-02-12T13:48:22;103808.97;;;7.21;88.46
57990;BME280;58373;51.824;5.564;2023-02-12T13:51:10;103801.41;;;7.13;88.13
57990;BME280;58373;51.824;5.564;2023-02-12T14:05:02;103794.44;;;7.16;87.38
57990;BME280;58373;51.824;5.564;2023-02-12T14:07:46;103796.03;;;7.22;88.89
57990;BME280;58373;51.824;5.564;2023-02-12T14:10:29;103794.34;;;7.23;88.32
57990;BME280;58373;51.824;5.564;2023-02-12T14:13:12;103782.44;;;7.14;87.54
57990;BME280;58373;51.824;5.564;2023-02-12T14:15:47;103783.19;;;7.19;86.93
57990;BME280;58373;51.824;5.564;2023-02-12T14:18:44;103789.97;;;7.25;87.13
57990;BME280;58373;51.824;5.564;2023-02-12T14:23:35;103795.31;;;7.15;87.07
57990;BME280;58373;51.824;5.564;2023-02-12T14:26:04;103805.66;;;7.14;87.29
57990;BME280;58373;51.824;5.564;2023-02-12T14:33:46;103774.75;;;7.12;87.03
57990;BME280;58373;51.824;5.564;2023-02-12T14:36:35;103787.47;;;7.20;88.13
